Time;durP1;ratioP1;P1;durP2;ratioP2;P2;SDS_P1;SDS_P2;PMS_P1;PMS_P2;Temp;Humidity;BMP_temperature;BMP_pressure;BME280_temperature;BME280_humidity;BME280_pressure;Samples;Min_cycle;Max_cycle;Signal;HPM_P1;HPM_P2
2022/04/10 00:00:56;;;;;;;9.63;8.27;;;7.10;99.90;7.10;97260.00;;;;4632608;30;87048;-65
2022/04/10 00:03:23;;;;;;;10.32;7.97;;;7.10;99.90;7.10;97267.00;;;;4632040;30;87087;-65
2022/04/10 00:05:52;;;;;;;9.77;7.80;;;7.10;99.90;7.10;97269.00;;;;4632586;30;88710;-64
2022/04/10 00:08:19;;;;;;;10.48;7.15;;;7.10;99.90;7.10;97274.00;;;;4633591;30;88071;-64
2022/04/10 00:10:45;;;;;;;12.70;8.00;;;7.10;99.90;7.10;97260.00;;;;4634106;30;86915;-64
2022/04/10 00:13:12;;;;;;;12.38;7.47;;;7.10;99.90;7.10;97263.00;;;;4637118;30;87200;-64
2022/04/10 00:15:39;;;;;;;12.48;7.82;;;7.10;99.90;7.00;97253.00;;;;4633010;30;87611;-63
2022/04/10 00:18:06;;;;;;;12.35;7.75;;;7.10;99.90;7.00;97263.00;;;;4634168;30;87368;-64
2022/04/10 00:20:32;;;;;;;12.75;7.20;;;7.10;99.90;7.00;97254.00;;;;4633353;30;87013;-64
2022/04/10 00:22:58;;;;;;;10.35;6.85;;;7.10;99.90;7.00;97260.00;;;;4633601;30;87279;-64
2022/04/10 00:25:24;;;;;;;13.35;8.20;;;7.10;99.90;7.00;97245.00;;;;4634201;30;86256;-63
2022/04/10 00:27:50;;;;;;;11.52;7.20;;;7.10;99.90;7.00;97241.00;;;;4633822;30;87652;-64
2022/04/10 00:30:17;;;;;;;10.65;7.55;;;7.00;99.90;7.00;97236.00;;;;4634303;30;87037;-64
2022/04/10 00:32:44;;;;;;;10.63;7.55;;;7.00;99.90;7.00;97239.00;;;;4632761;30;88020;-66
2022/04/10 00:35:11;;;;;;;12.15;7.82;;;7.00;99.90;7.00;97230.00;;;;4633152;30;87754;-64
2022/04/10 00:37:39;;;;;;;9.05;7.50;;;7.00;99.90;6.90;97223.00;;;;4634298;30;87175;-64
2022/04/10 00:40:08;;;;;;;10.68;7.95;;;7.00;99.90;6.90;97229.00;;;;4662171;30;87381;-64
2022/04/10 00:42:37;;;;;;;11.25;7.60;;;7.00;99.90;6.90;97221.00;;;;4630182;30;87536;-64
2022/04/10 00:45:06;;;;;;;11.27;7.80;;;7.00;99.90;6.90;97225.00;;;;4630124;30;87579;-63
2022/04/10 00:47:33;;;;;;;12.90;7.82;;;7.00;99.90;6.90;97216.00;;;;4632557;30;89143;-63
2022/04/10 00:50:04;;;;;;;10.73;8.35;;;7.00;99.90;6.90;97223.00;;;;4633699;30;86342;-63
2022/04/10 00:52:30;;;;;;;12.25;9.68;;;6.90;99.90;6.90;97224.00;;;;4633356;30;87068;-63
2022/04/10 00:54:57;;;;;;;13.55;8.95;;;6.90;99.90;6.90;97226.00;;;;4634341;30;87680;-64
2022/04/10 00:57:24;;;;;;;11.23;9.52;;;6.90;99.90;6.80;97217.00;;;;4633156;30;88020;-64
2022/04/10 00:59:50;;;;;;;12.38;9.70;;;6.90;99.90;6.80;97227.00;;;;4633684;30;87110;-65
2022/04/10 01:02:17;;;;;;;12.55;10.15;;;6.80;99.90;6.80;97223.00;;;;4633826;30;87138;-64
2022/04/10 01:04:43;;;;;;;13.30;10.35;;;6.80;99.90;6.80;97225.00;;;;4632583;30;87469;-64
2022/04/10 01:07:13;;;;;;;12.43;11.07;;;6.80;99.90;6.80;97234.00;;;;4632338;30;86999;-64
2022/04/10 01:09:42;;;;;;;15.80;12.05;;;6.80;99.90;6.80;97229.00;;;;4633371;30;86982;-64
2022/04/10 01:12:11;;;;;;;16.60;11.70;;;6.80;99.90;6.70;97229.00;;;;4635435;30;87107;-64
2022/04/10 01:14:40;;;;;;;14.90;11.90;;;6.80;99.90;6.70;97229.00;;;;4632435;30;86823;-64
2022/04/10 01:17:10;;;;;;;15.77;12.40;;;6.80;99.90;6.70;97230.00;;;;4631545;30;87094;-65
2022/04/10 01:19:40;;;;;;;15.18;11.82;;;6.80;99.90;6.70;97237.00;;;;4631761;30;87463;-65
2022/04/10 01:22:09;;;;;;;16.45;12.75;;;6.70;99.90;6.70;97227.00;;;;4631663;30;88570;-64
2022/04/10 01:24:47;;;;;;;14.40;12.20;;;6.70;99.90;6.70;97225.00;;;;4631637;30;87879;-64
2022/04/10 01:27:16;;;;;;;15.63;12.73;;;6.70;99.90;6.70;97222.00;;;;4631123;30;87463;-64
2022/04/10 01:29:43;;;;;;;16.02;14.20;;;6.70;99.90;6.70;97223.00;;;;4631971;30;86989;-63
2022/04/10 01:32:09;;;;;;;14.45;12.95;;;6.70;99.90;6.70;97208.00;;;;4632089;30;87458;-64
2022/04/10 01:34:38;;;;;;;14.98;12.27;;;6.70;99.90;6.60;97213.00;;;;4631282;30;87649;-64
2022/04/10 01:37:05;;;;;;;16.27;13.30;;;6.70;99.90;6.60;97217.00;;;;4617389;30;87390;-64
2022/04/10 01:39:32;;;;;;;18.25;13.73;;;6.70;99.90;6.60;97209.00;;;;4632128;30;86277;-64
2022/04/10 01:41:59;;;;;;;16.63;14.60;;;6.70;99.90;6.60;97210.00;;;;4631765;30;87892;-64
2022/04/10 01:44:25;;;;;;;20.23;15.75;;;6.70;99.90;6.60;97201.00;;;;4646033;30;87149;-64
2022/04/10 01:46:52;;;;;;;20.92;16.15;;;6.60;99.90;6.60;97203.00;;;;4631869;30;88053;-64
2022/04/10 01:49:18;;;;;;;17.13;14.70;;;6.60;99.90;6.60;97203.00;;;;4632275;30;87250;-63
2022/04/10 01:51:44;;;;;;;18.10;16.00;;;6.70;99.90;6.60;97195.00;;;;4631737;30;87097;-64
2022/04/10 01:54:10;;;;;;;17.52;15.63;;;6.60;99.90;6.60;97192.00;;;;4631674;30;88755;-63
2022/04/10 01:56:36;;;;;;;19.38;17.15;;;6.70;99.90;6.60;97195.00;;;;4631938;30;87328;-64
2022/04/10 01:59:04;;;;;;;19.25;17.25;;;6.70;99.90;6.70;97205.00;;;;4631445;30;87097;-63
2022/04/10 02:01:31;;;;;;;20.75;17.05;;;6.70;99.90;6.60;97183.00;;;;4631021;30;88144;-63
2022/04/10 02:03:57;;;;;;;20.25;17.77;;;6.70;99.90;6.60;97203.00;;;;4630681;30;87013;-64
2022/04/10 02:06:23;;;;;;;19.42;16.98;;;6.70;99.90;6.70;97194.00;;;;4630197;30;87143;-63
2022/04/10 02:08:52;;;;;;;20.08;17.98;;;6.70;99.90;6.70;97191.00;;;;4631240;30;87008;-64
2022/04/10 02:11:21;;;;;;;19.73;17.42;;;6.70;99.90;6.70;97180.00;;;;4630743;30;88895;-64
2022/04/10 02:13:51;;;;;;;19.93;17.77;;;6.70;99.90;6.70;97181.00;;;;4630613;30;87578;-64
2022/04/10 02:16:20;;;;;;;23.42;18.77;;;6.80;99.90;6.70;97170.00;;;;4630095;30;87841;-64
2022/04/10 02:18:48;;;;;;;20.45;18.10;;;6.80;99.90;6.70;97183.00;;;;4645483;30;87219;-64
2022/04/10 02:21:15;;;;;;;22.23;19.40;;;6.80;99.90;6.70;97177.00;;;;4631612;30;87100;-63
2022/04/10 02:23:44;;;;;;;20.67;18.40;;;6.80;99.90;6.70;97177.00;;;;4659055;30;88110;-63
2022/04/10 02:26:11;;;;;;;22.30;18.05;;;6.80;99.90;6.70;97179.00;;;;4616311;30;88694;-65
2022/04/10 02:28:40;;;;;;;21.05;18.88;;;6.80;99.90;6.80;97179.00;;;;4630970;30;86528;-64
2022/04/10 02:31:07;;;;;;;22.27;19.75;;;6.90;99.90;6.80;97179.00;;;;4631561;30;87766;-63
2022/04/10 02:33:35;;;;;;;23.63;20.65;;;6.80;99.90;6.80;97177.00;;;;4629169;30;88067;-63
2022/04/10 02:36:01;;;;;;;26.55;22.05;;;6.80;99.90;6.80;97177.00;;;;4630360;30;88103;-63
2022/04/10 02:38:28;;;;;;;24.35;21.75;;;6.80;99.90;6.80;97169.00;;;;4631690;30;87138;-63
2022/04/10 02:40:55;;;;;;;27.33;23.48;;;6.90;99.90;6.80;97173.00;;;;4634209;30;87038;-63
2022/04/10 02:43:22;;;;;;;27.00;23.40;;;6.90;99.90;6.80;97178.00;;;;4633932;30;87490;-64
2022/04/10 02:45:52;;;;;;;26.63;23.73;;;6.90;99.90;6.80;97176.00;;;;4633771;30;87133;-63
2022/04/10 02:48:19;;;;;;;27.92;24.70;;;6.80;99.90;6.80;97175.00;;;;4633722;30;87599;-64
2022/04/10 02:50:47;;;;;;;25.90;23.15;;;6.80;99.90;6.70;97179.00;;;;4633253;30;87359;-65
2022/04/10 02:53:14;;;;;;;28.08;24.75;;;6.90;99.90;6.80;97182.00;;;;4633915;30;87058;-64
2022/04/10 02:55:40;;;;;;;32.08;25.25;;;6.80;99.90;6.80;97179.00;;;;4662462;30;87517;-64
2022/04/10 02:58:26;;;;;;;28.27;25.20;;;6.80;99.90;6.80;97182.00;;;;4631409;30;87493;-63
2022/04/10 03:01:10;;;;;;;28.58;24.55;;;6.80;99.90;6.80;97189.00;;;;4631198;30;89118;-64
2022/04/10 03:03:58;;;;;;;27.17;23.75;;;6.80;99.90;6.80;97189.00;;;;4631338;30;87533;-65
2022/04/10 03:06:43;;;;;;;28.23;23.80;;;6.80;99.90;6.80;97190.00;;;;4633813;30;87234;-64
2022/04/10 03:09:29;;;;;;;30.10;24.58;;;6.90;99.90;6.80;97193.00;;;;4631219;30;87084;-64
2022/04/10 03:12:14;;;;;;;28.33;23.65;;;6.90;99.90;6.80;97184.00;;;;4631224;30;88105;-64
2022/04/10 03:14:59;;;;;;;26.88;23.77;;;6.90;99.90;6.80;97191.00;;;;4631540;30;87818;-64
2022/04/10 03:17:44;;;;;;;28.02;23.88;;;6.80;99.90;6.80;97191.00;;;;4630951;30;87138;-65
2022/04/10 03:20:29;;;;;;;30.70;26.08;;;6.90;99.90;6.80;97193.00;;;;4634630;30;86376;-63
2022/04/10 03:23:14;;;;;;;28.85;25.15;;;6.90;99.90;6.80;97188.00;;;;4633132;30;87059;-64
2022/04/10 03:26:00;;;;;;;30.20;26.48;;;6.90;99.90;6.80;97191.00;;;;4633520;30;87271;-64
2022/04/10 03:28:45;;;;;;;33.65;27.13;;;6.90;99.90;6.80;97177.00;;;;4630300;30;88254;-63
2022/04/10 03:31:29;;;;;;;29.02;25.55;;;6.90;99.90;6.80;97176.00;;;;4630787;30;87577;-63
2022/04/10 03:34:14;;;;;;;29.50;25.73;;;6.90;99.90;8.20;97181.00;;;;4630698;30;87256;-64
2022/04/10 03:36:59;;;;;;;32.83;27.23;;;6.90;99.90;8.60;97183.00;;;;4632939;30;87222;-65
2022/04/10 03:39:43;;;;;;;33.42;27.63;;;7.00;99.90;8.70;97178.00;;;;4630567;30;87538;-64
2022/04/10 03:42:29;;;;;;;29.60;26.40;;;7.00;99.90;8.70;97177.00;;;;4626860;30;87068;-64
2022/04/10 03:45:14;;;;;;;30.20;24.98;;;7.00;99.90;8.80;97183.00;;;;4631012;30;87085;-64
2022/04/10 03:48:00;;;;;;;32.45;27.23;;;7.00;99.90;8.90;97190.00;;;;4630859;30;86600;-65
2022/04/10 03:50:49;;;;;;;33.22;25.83;;;7.00;99.90;8.80;97196.00;;;;4631115;30;86881;-64
2022/04/10 03:53:36;;;;;;;29.55;24.77;;;7.00;99.90;9.10;97194.00;;;;4631689;30;87493;-64
2022/04/10 03:56:21;;;;;;;29.52;25.95;;;7.00;99.90;8.90;97197.00;;;;4630803;30;87991;-64
2022/04/10 03:59:05;;;;;;;31.25;26.88;;;7.00;99.90;8.90;97215.00;;;;4642590;30;88189;-64
2022/04/10 04:01:51;;;;;;;29.33;26.08;;;7.00;99.90;9.10;97217.00;;;;4631620;30;87036;-64
2022/04/10 04:04:39;;;;;;;27.92;24.90;;;7.00;99.90;9.00;97218.00;;;;4633464;30;87463;-63
2022/04/10 04:07:24;;;;;;;30.73;27.40;;;7.00;99.90;9.20;97226.00;;;;4629904;30;87089;-63
2022/04/10 04:10:10;;;;;;;29.75;26.05;;;7.10;99.90;9.10;97225.00;;;;4630977;30;87123;-63
2022/04/10 04:12:55;;;;;;;27.80;24.65;;;7.10;99.90;9.10;97233.00;;;;4629972;30;87625;-64
2022/04/10 04:15:41;;;;;;;27.70;24.75;;;7.00;99.90;9.20;97228.00;;;;4631892;30;86603;-64
2022/04/10 04:18:25;;;;;;;31.15;27.88;;;7.10;99.90;9.20;97227.00;;;;4653664;30;87456;-64
2022/04/10 04:21:11;;;;;;;30.25;26.25;;;7.10;99.90;9.20;97238.00;;;;4630267;30;87329;-64
2022/04/10 04:24:00;;;;;;;33.08;28.42;;;7.00;99.90;9.30;97241.00;;;;4634272;30;89751;-65
2022/04/10 04:26:46;;;;;;;33.03;27.13;;;7.10;99.90;9.30;97228.00;;;;4629974;30;87723;-64
2022/04/10 04:29:33;;;;;;;34.90;28.60;;;7.10;99.90;9.30;97232.00;;;;4630814;30;87074;-63
2022/04/10 04:32:18;;;;;;;33.63;28.20;;;7.10;99.90;9.40;97230.00;;;;4635968;30;88130;-64
2022/04/10 04:35:04;;;;;;;33.22;28.85;;;7.10;99.90;9.50;97223.00;;;;4629697;30;87190;-64
2022/04/10 04:37:49;;;;;;;32.35;28.73;;;7.10;99.90;9.40;97235.00;;;;4629246;30;87205;-63
2022/04/10 04:40:38;;;;;;;32.97;29.30;;;7.20;99.90;9.40;97234.00;;;;4630537;30;87040;-65
2022/04/10 04:43:22;;;;;;;35.50;30.00;;;7.20;99.90;9.50;97243.00;;;;4630533;30;86552;-64
2022/04/10 04:46:08;;;;;;;34.92;28.88;;;7.20;99.90;9.50;97238.00;;;;4629744;30;87037;-65
2022/04/10 04:48:54;;;;;;;30.10;26.88;;;7.20;99.90;9.60;97248.00;;;;4630025;30;87039;-64
2022/04/10 04:51:39;;;;;;;30.92;25.85;;;7.30;99.90;9.50;97253.00;;;;4629611;30;88086;-64
2022/04/10 04:54:25;;;;;;;31.83;26.45;;;7.30;99.90;9.50;97247.00;;;;4629799;30;87568;-64
2022/04/10 04:57:10;;;;;;;31.08;27.77;;;7.30;99.90;9.60;97261.00;;;;4630191;30;87074;-65
2022/04/10 04:59:59;;;;;;;29.63;26.33;;;7.30;99.90;9.60;97260.00;;;;4629601;30;87112;-65
2022/04/10 05:02:44;;;;;;;28.52;25.52;;;7.30;99.90;9.60;97262.00;;;;4629112;30;87112;-64
2022/04/10 05:05:30;;;;;;;32.00;25.92;;;7.30;99.90;9.60;97271.00;;;;4629528;30;87329;-63
2022/04/10 05:08:21;;;;;;;29.35;26.17;;;7.40;99.90;9.70;97272.00;;;;4618256;30;87207;-65
2022/04/10 05:11:09;;;;;;;29.30;24.70;;;7.40;99.90;9.60;97266.00;;;;4629462;30;86798;-64
2022/04/10 05:13:55;;;;;;;30.55;24.20;;;7.40;99.90;9.70;97278.00;;;;4629384;30;87074;-64
2022/04/10 05:16:40;;;;;;;28.30;24.13;;;7.40;99.90;9.70;97284.00;;;;4631568;30;87352;-65
2022/04/10 05:19:25;;;;;;;27.38;24.30;;;7.40;99.90;9.70;97294.00;;;;4631287;30;88223;-65
2022/04/10 05:22:12;;;;;;;30.65;24.77;;;7.50;99.90;9.80;97288.00;;;;4628989;30;87100;-65
2022/04/10 05:25:03;;;;;;;26.33;23.33;;;7.50;99.90;9.80;97301.00;;;;4628852;30;87665;-65
2022/04/10 05:27:49;;;;;;;36.17;25.38;;;7.50;99.90;9.80;97294.00;;;;4629469;30;87225;-63
2022/04/10 05:30:34;;;;;;;27.70;24.73;;;7.50;99.90;9.80;97300.00;;;;4629158;30;87113;-65
2022/04/10 05:33:19;;;;;;;33.88;25.83;;;7.50;99.90;9.80;97296.00;;;;4632246;30;87036;-65
2022/04/10 05:36:05;;;;;;;34.30;25.90;;;7.50;99.90;9.80;97295.00;;;;4653950;30;87342;-65
2022/04/10 05:38:53;;;;;;;31.77;24.83;;;7.50;99.90;9.90;97296.00;;;;4629631;30;86779;-64
2022/04/10 05:41:40;;;;;;;29.45;25.55;;;7.50;99.90;9.90;97308.00;;;;4628992;30;87062;-65
2022/04/10 05:44:30;;;;;;;32.85;25.80;;;7.50;99.90;10.00;97296.00;;;;4629578;30;88019;-64
2022/04/10 05:47:15;;;;;;;31.60;25.90;;;7.50;99.90;10.00;97307.00;;;;4629043;30;87991;-63
2022/04/10 05:50:00;;;;;;;30.90;25.45;;;7.60;99.90;10.10;97314.00;;;;4628537;30;87326;-64
2022/04/10 05:52:50;;;;;;;36.15;27.13;;;7.60;99.90;10.00;97315.00;;;;4628975;30;87512;-65
2022/04/10 05:55:38;;;;;;;30.92;26.33;;;7.60;99.90;10.00;97318.00;;;;4629902;30;87088;-65
2022/04/10 05:58:27;;;;;;;37.55;26.92;;;7.70;99.90;10.00;97324.00;;;;4629154;30;87058;-64
2022/04/10 06:01:14;;;;;;;36.78;29.50;;;7.70;99.90;10.00;97327.00;;;;4628119;30;87345;-64
2022/04/10 06:04:01;;;;;;;36.28;28.35;;;7.60;99.90;10.00;97338.00;;;;4628655;30;87879;-64
2022/04/10 06:06:46;;;;;;;36.20;27.17;;;7.60;99.90;10.00;97343.00;;;;4632291;30;86352;-64
2022/04/10 06:09:40;;;;;;;33.60;26.83;;;7.70;99.90;10.00;97342.00;;;;4628748;30;87481;-64
2022/04/10 06:12:26;;;;;;;46.40;30.77;;;7.70;99.90;10.10;97349.00;;;;4629413;30;87279;-65
2022/04/10 06:15:10;;;;;;;50.08;33.55;;;7.60;99.90;10.00;97359.00;;;;4629095;30;88110;-64
2022/04/10 06:17:39;;;;;;;41.00;30.63;;;7.60;99.90;9.90;97368.00;;;;4630545;30;87153;-63
2022/04/10 06:20:07;;;;;;;46.63;33.08;;;7.60;99.90;9.90;97378.00;;;;4631080;30;87059;-66
2022/04/10 06:22:34;;;;;;;33.58;29.50;;;7.50;99.90;9.90;97385.00;;;;4631882;30;87697;-65
2022/04/10 06:25:03;;;;;;;41.65;31.60;;;7.50;99.90;9.90;97388.00;;;;4630557;30;88588;-66
2022/04/10 06:27:29;;;;;;;41.80;32.67;;;7.50;99.90;10.10;97389.00;;;;4630476;30;87641;-65
2022/04/10 06:29:55;;;;;;;42.15;32.33;;;7.60;99.90;10.10;97400.00;;;;4630905;30;87545;-66
2022/04/10 06:32:21;;;;;;;50.40;35.10;;;7.60;99.90;10.20;97409.00;;;;4631914;30;87801;-64
2022/04/10 06:34:49;;;;;;;105.07;41.38;;;7.60;99.90;10.10;97408.00;;;;4630292;30;86970;-65
2022/04/10 06:37:16;;;;;;;43.65;31.85;;;7.50;99.90;10.10;97397.00;;;;4631390;30;87058;-65
2022/04/10 06:39:43;;;;;;;34.35;26.65;;;7.50;99.90;10.20;97409.00;;;;4630031;30;88026;-64
2022/04/10 06:42:10;;;;;;;38.35;27.60;;;7.60;99.90;10.10;97403.00;;;;4630581;30;87636;-63
2022/04/10 06:44:55;;;;;;;44.45;30.42;;;7.50;99.90;10.20;97403.00;;;;4623312;30;87462;-64
2022/04/10 06:47:49;;;;;;;28.98;24.50;;;7.50;99.90;10.20;97405.00;;;;4631576;30;87056;-65
2022/04/10 06:50:16;;;;;;;26.95;21.95;;;7.50;99.90;10.10;97398.00;;;;4631314;30;87185;-65
2022/04/10 06:52:43;;;;;;;19.65;16.77;;;7.50;99.90;10.00;97407.00;;;;4631873;30;87654;-65
2022/04/10 06:55:11;;;;;;;16.65;14.95;;;7.50;99.90;10.00;97416.00;;;;4630906;30;87409;-64
2022/04/10 06:57:38;;;;;;;19.60;15.95;;;7.40;99.90;10.00;97432.00;;;;4630760;30;86289;-64
2022/04/10 07:00:05;;;;;;;14.60;12.77;;;7.40;99.90;9.70;97444.00;;;;4644602;30;87505;-66
2022/04/10 07:02:35;;;;;;;15.68;11.82;;;7.20;99.90;9.60;97441.00;;;;4615550;30;87791;-64
2022/04/10 07:05:03;;;;;;;10.45;7.38;;;7.10;99.90;8.90;97449.00;;;;4629558;30;88550;-67
2022/04/10 07:07:31;;;;;;;5.63;4.00;;;6.80;99.90;8.80;97456.00;;;;4630410;30;87995;-65
2022/04/10 07:09:59;;;;;;;4.65;2.88;;;6.40;99.90;8.50;97477.00;;;;4631184;30;87246;-64
2022/04/10 07:12:26;;;;;;;4.60;3.75;;;6.20;99.90;8.40;97483.00;;;;4632277;30;87564;-65
2022/04/10 07:14:54;;;;;;;2.92;2.65;;;6.00;99.90;8.20;97475.00;;;;4630034;30;87481;-65
2022/04/10 07:17:21;;;;;;;3.17;2.53;;;5.80;99.90;8.10;97505.00;;;;4630585;30;87172;-66
2022/04/10 07:19:53;;;;;;;2.25;1.92;;;5.70;99.90;7.50;97509.00;;;;4628804;30;87206;-65
2022/04/10 07:25:06;;;;;;;5.32;2.72;;;5.50;99.90;7.70;97519.00;;;;4631958;30;87122;-65
2022/04/10 07:27:34;;;;;;;3.22;2.15;;;5.40;99.90;7.40;97518.00;;;;4634051;30;87423;-65
2022/04/10 07:30:24;;;;;;;3.30;1.65;;;5.40;99.90;7.60;97525.00;;;;4633692;30;88111;-65
2022/04/10 07:32:56;;;;;;;4.55;1.95;;;5.30;99.90;7.70;97533.00;;;;4633128;30;88693;-65
2022/04/10 07:35:26;;;;;;;2.38;1.58;;;5.40;99.90;7.60;97537.00;;;;4633751;30;88032;-65
2022/04/10 07:38:00;;;;;;;1.83;1.45;;;5.40;99.90;7.70;97527.00;;;;4634460;30;87035;-65
2022/04/10 07:40:27;;;;;;;3.67;1.60;;;5.40;99.90;7.90;97533.00;;;;4634124;30;87058;-66
2022/04/10 07:42:57;;;;;;;3.42;1.60;;;5.50;99.90;8.40;97551.00;;;;4633163;30;90038;-65
2022/04/10 07:48:19;;;;;;;3.50;1.88;;;5.60;99.90;8.30;97547.00;;;;4634574;30;86328;-65
2022/04/10 07:50:46;;;;;;;2.28;1.60;;;5.70;99.90;8.30;97561.00;;;;4634843;30;87033;-65
2022/04/10 07:53:14;;;;;;;2.10;1.50;;;5.80;99.90;8.10;97568.00;;;;4633302;30;87886;-64
2022/04/10 07:55:47;;;;;;;2.85;1.60;;;5.70;99.90;8.10;97567.00;;;;4633591;30;88611;-65
2022/04/10 07:58:13;;;;;;;4.88;1.90;;;5.80;99.90;7.90;97583.00;;;;4634028;30;87047;-66
2022/04/10 08:00:40;;;;;;;2.92;2.05;;;5.70;99.90;8.00;97598.00;;;;4632826;30;88158;-66
2022/04/10 08:03:08;;;;;;;4.85;2.20;;;5.70;99.90;8.40;97596.00;;;;4632635;30;87274;-65
2022/04/10 08:05:49;;;;;;;3.08;1.80;;;5.80;99.90;8.30;97592.00;;;;4633809;30;89298;-66
2022/04/10 08:08:19;;;;;;;2.85;2.35;;;5.80;99.90;8.30;97589.00;;;;4633319;30;87166;-64
2022/04/10 08:10:45;;;;;;;3.40;2.03;;;5.70;99.90;8.70;97598.00;;;;4634029;30;87053;-65
2022/04/10 08:13:11;;;;;;;4.00;1.90;;;5.90;99.90;8.90;97598.00;;;;4636555;30;87209;-64
2022/04/10 08:15:37;;;;;;;3.42;2.10;;;6.00;99.90;9.20;97597.00;;;;4618413;30;89574;-64
2022/04/10 08:18:03;;;;;;;6.03;2.50;;;6.20;99.90;8.90;97600.00;;;;4633897;30;87097;-65
2022/04/10 08:20:30;;;;;;;3.47;1.80;;;6.20;99.90;8.80;97591.00;;;;4633663;30;87951;-64
2022/04/10 08:22:59;;;;;;;3.60;1.90;;;6.10;99.90;8.90;97600.00;;;;4633391;30;88096;-65
2022/04/10 08:25:26;;;;;;;1.95;1.60;;;6.20;99.90;8.80;97621.00;;;;4634645;30;87473;-66
2022/04/10 08:27:53;;;;;;;3.42;2.10;;;6.20;99.90;9.00;97625.00;;;;4632754;30;87542;-65
2022/04/10 08:30:19;;;;;;;4.55;1.50;;;6.30;99.90;9.00;97656.00;;;;4633796;30;86988;-64
2022/04/10 08:32:45;;;;;;;3.60;1.67;;;6.40;99.90;9.10;97661.00;;;;4633180;30;87466;-65
2022/04/10 08:35:12;;;;;;;2.53;1.63;;;6.40;99.90;9.10;97667.00;;;;4632724;30;87162;-65
2022/04/10 08:37:40;;;;;;;2.75;1.67;;;6.40;99.90;8.90;97676.00;;;;4633811;30;86318;-65
2022/04/10 08:40:07;;;;;;;1.70;1.30;;;6.30;99.90;8.60;97686.00;;;;4633859;30;87105;-65
2022/04/10 08:42:33;;;;;;;3.42;1.85;;;6.20;99.90;8.60;97695.00;;;;4633207;30;87872;-65
2022/04/10 08:45:00;;;;;;;2.58;2.00;;;6.20;99.90;8.60;97694.00;;;;4633677;30;87917;-65
2022/04/10 08:47:27;;;;;;;3.17;2.03;;;6.10;99.90;8.60;97699.00;;;;4633884;30;87009;-66
2022/04/10 08:49:54;;;;;;;4.40;2.50;;;6.00;99.90;8.80;97695.00;;;;4632203;30;87690;-66
2022/04/10 08:52:21;;;;;;;3.42;2.42;;;6.00;99.90;8.50;97705.00;;;;4633459;30;88681;-65
2022/04/10 08:54:49;;;;;;;3.50;2.75;;;5.90;99.90;8.50;97708.00;;;;4633164;30;88573;-65
2022/04/10 08:57:16;;;;;;;3.60;2.30;;;5.90;99.90;8.60;97711.00;;;;4633813;30;87026;-65
2022/04/10 08:59:43;;;;;;;3.88;2.30;;;5.90;99.90;8.60;97702.00;;;;4633307;30;88190;-66
2022/04/10 09:02:13;;;;;;;2.80;2.50;;;5.90;99.90;8.70;97698.00;;;;4633528;30;86323;-65
2022/04/10 09:04:40;;;;;;;3.90;1.90;;;5.90;99.90;8.30;97709.00;;;;4631502;30;89705;-65
2022/04/10 09:07:10;;;;;;;4.93;2.28;;;5.80;99.90;8.50;97719.00;;;;4633002;30;87165;-65
2022/04/10 09:09:41;;;;;;;4.15;2.42;;;5.80;99.90;8.70;97711.00;;;;4632923;30;88426;-66
2022/04/10 09:12:08;;;;;;;4.30;2.22;;;5.90;99.90;8.90;97735.00;;;;4635475;30;87149;-65
2022/04/10 09:14:41;;;;;;;3.60;2.05;;;6.10;99.90;9.00;97733.00;;;;4631291;30;88505;-66
2022/04/10 09:17:29;;;;;;;2.47;2.03;;;6.20;99.90;8.60;97739.00;;;;4633539;30;86989;-65
2022/04/10 09:19:58;;;;;;;3.38;2.05;;;6.10;99.90;8.60;97744.00;;;;4629408;30;87023;-65
2022/04/10 09:22:29;;;;;;;8.18;2.63;;;6.10;99.90;8.60;97747.00;;;;4631886;30;90301;-65
2022/04/10 09:25:09;;;;;;;2.80;2.47;;;6.00;99.90;8.70;97743.00;;;;4632828;30;88617;-64
2022/04/10 09:27:48;;;;;;;3.50;2.20;;;6.00;99.90;8.70;97750.00;;;;4630856;30;86617;-65
2022/04/10 09:30:17;;;;;;;5.50;2.53;;;6.20;99.90;8.90;97765.00;;;;4633538;30;87087;-66
2022/04/10 09:32:47;;;;;;;4.88;2.28;;;6.30;99.90;8.90;97761.00;;;;4632845;30;87902;-65
2022/04/10 09:35:16;;;;;;;3.83;2.60;;;6.30;99.90;8.70;97760.00;;;;4631009;30;89069;-67
2022/04/10 09:37:59;;;;;;;4.43;3.30;;;6.20;99.90;8.60;97771.00;;;;4632781;30;87128;-67
2022/04/10 09:40:37;;;;;;;;;;;6.10;99.90;8.80;97767.00;;;;4645248;30;87142;-64
2022/04/10 09:43:13;;;;;;;4.13;3.50;;;6.20;99.90;8.70;97773.00;;;;4633266;30;87711;-68
2022/04/10 09:45:44;;;;;;;4.25;3.20;;;6.10;99.90;8.60;97787.00;;;;4645763;30;87727;-64
2022/04/10 09:48:37;;;;;;;4.67;2.60;;;6.10;99.90;8.50;97776.00;;;;4632930;30;87054;-65
2022/04/10 09:51:04;;;;;;;5.10;2.75;;;6.10;99.90;8.40;97787.00;;;;4631675;30;87619;-66
2022/04/10 09:53:32;;;;;;;2.42;2.15;;;6.00;99.90;8.30;97786.00;;;;4633417;30;87283;-65
2022/04/10 09:56:02;;;;;;;5.32;3.22;;;6.00;99.90;8.60;97795.00;;;;4631513;30;87021;-65
2022/04/10 09:58:29;;;;;;;4.18;3.13;;;6.00;99.90;8.60;97792.00;;;;4632392;30;87046;-65
2022/04/10 10:00:58;;;;;;;3.17;2.60;;;6.00;99.90;8.60;97810.00;;;;4632226;30;88034;-65
2022/04/10 10:03:29;;;;;;;6.03;3.10;;;6.10;99.90;8.90;97800.00;;;;4631708;30;87580;-65
2022/04/10 10:05:56;;;;;;;5.17;2.90;;;6.10;99.90;9.00;97803.00;;;;4659211;30;88452;-65
2022/04/10 10:08:25;;;;;;;5.32;2.53;;;6.30;99.90;9.00;97797.00;;;;4631040;30;87202;-65
2022/04/10 10:10:52;;;;;;;5.13;3.17;;;6.40;99.90;9.40;97807.00;;;;4632661;30;88159;-64
2022/04/10 10:13:26;;;;;;;3.45;2.30;;;6.60;99.90;9.10;97815.00;;;;4634690;30;89176;-65
2022/04/10 10:15:56;;;;;;;3.00;2.30;;;6.60;99.90;9.20;97804.00;;;;4630495;30;87520;-67
2022/04/10 10:18:24;;;;;;;3.78;2.30;;;6.60;99.90;8.90;97820.00;;;;4632417;30;86200;-66
2022/04/10 10:20:51;;;;;;;5.32;2.88;;;6.50;99.90;9.20;97814.00;;;;4631770;30;88024;-65
2022/04/10 10:23:21;;;;;;;3.65;2.50;;;6.50;99.90;9.20;97814.00;;;;4627805;30;87882;-65
2022/04/10 10:26:25;;;;;;;5.72;2.80;;;6.60;99.90;9.20;97821.00;;;;4631853;30;89073;-65
2022/04/10 10:29:52;;;;;;;4.40;2.47;;;6.60;99.90;9.10;97821.00;;;;4629680;30;87558;-64
2022/04/10 10:32:55;;;;;;;4.10;2.70;;;6.60;99.90;9.30;97818.00;;;;4605197;30;87400;-59
2022/04/10 10:35:44;;;;;;;3.63;2.60;;;6.70;99.90;9.60;97832.00;;;;4615731;30;88655;-60
2022/04/10 10:38:20;;;;;;;3.95;2.70;;;6.90;99.90;9.90;97826.00;;;;4631615;30;87349;-56
2022/04/10 10:40:49;;;;;;;3.42;2.53;;;7.10;99.90;9.70;97845.00;;;;4630919;30;87015;-60
2022/04/10 10:43:24;;;;;;;5.80;2.83;;;7.00;99.90;10.00;97840.00;;;;4631725;30;87201;-59
2022/04/10 10:45:55;;;;;;;4.63;2.72;;;7.20;99.90;10.00;97854.00;;;;4632018;30;88041;-61
2022/04/10 10:48:34;;;;;;;4.25;2.80;;;7.10;99.90;10.20;97854.00;;;;4632040;30;88531;-60
2022/04/10 10:51:24;;;;;;;3.30;2.78;;;7.30;99.90;10.10;97882.00;;;;4631388;30;87082;-61
2022/04/10 10:53:55;;;;;;;4.65;2.80;;;7.50;99.90;10.30;97864.00;;;;4631441;30;87965;-59
2022/04/10 10:56:31;;;;;;;6.07;3.05;;;7.70;99.90;10.40;97868.00;;;;4632076;30;88986;-59
2022/04/10 10:59:35;;;;;;;3.78;2.80;;;7.80;99.90;10.60;97866.00;;;;4631852;30;87115;-58
2022/04/10 11:02:10;;;;;;;4.32;3.17;;;7.80;99.90;10.70;97873.00;;;;4633421;30;87004;-58
2022/04/10 11:04:50;;;;;;;5.20;3.03;;;7.80;99.90;10.80;97880.00;;;;4634561;30;87151;-58
2022/04/10 11:07:19;;;;;;;4.30;3.25;;;8.00;99.90;10.60;97882.00;;;;4634164;30;87528;-59
2022/04/10 11:10:08;;;;;;;5.20;3.47;;;7.90;99.90;10.50;97880.00;;;;4631786;30;87505;-61
2022/04/10 11:12:51;;;;;;;6.22;3.63;;;7.70;99.90;10.50;97881.00;;;;4638196;30;86416;-63
2022/04/10 11:15:28;;;;;;;5.15;3.40;;;7.70;99.90;10.40;97888.00;;;;4632376;30;87964;-59
2022/04/10 11:17:54;;;;;;;4.20;3.38;;;7.60;99.90;10.40;97897.00;;;;4634429;30;87594;-60
2022/04/10 11:20:23;;;;;;;5.75;3.53;;;7.70;99.90;10.40;97878.00;;;;4630501;30;89060;-66
2022/04/10 11:22:52;;;;;;;7.68;3.58;;;7.60;99.90;10.20;97897.00;;;;4634646;30;87027;-59
2022/04/10 11:25:48;;;;;;;5.07;3.33;;;7.60;99.90;10.30;97888.00;;;;4633942;30;87025;-61
2022/04/10 11:28:14;;;;;;;8.07;3.65;;;7.50;99.90;10.20;97887.00;;;;4634400;30;87793;-59
2022/04/10 11:30:43;;;;;;;9.00;4.13;;;7.50;99.90;10.10;97884.00;;;;4634170;30;88432;-56
2022/04/10 11:33:12;;;;;;;6.03;3.58;;;7.40;99.90;10.20;97891.00;;;;4633719;30;87303;-58
2022/04/10 11:35:41;;;;;;;9.88;3.78;;;7.50;99.90;10.20;97884.00;;;;4633675;30;87198;-59
2022/04/10 11:38:18;;;;;;;11.77;4.32;;;7.50;99.90;10.30;97884.00;;;;4633271;30;87919;-59